sensor_id;sensor_type;location;lat;lon;timestamp;pressure;altitude;pressure_sealevel;temperature;humidity
22572;BME280;11452;53.368;14.658;2023-04-25T00:03:59;99876.20;;;10.84;63.77
22572;BME280;11452;53.368;14.658;2023-04-25T00:09:06;99878.56;;;10.88;63.94
22572;BME280;11452;53.368;14.658;2023-04-25T00:14:15;99879.58;;;10.80;63.98
22572;BME280;11452;53.368;14.658;2023-04-25T00:19:21;99875.78;;;10.90;64.07
22572;BME280;11452;53.368;14.658;2023-04-25T00:24:26;99873.05;;;10.84;63.92
22572;BME280;11452;53.368;14.658;2023-04-25T00:29:32;99868.03;;;10.80;64.10
22572;BME280;11452;53.368;14.658;2023-04-25T00:34:38;99876.72;;;10.70;64.43
22572;BME280;11452;53.368;14.658;2023-04-25T00:39:44;99870.41;;;10.71;64.75
22572;BME280;11452;53.368;14.658;2023-04-25T00:44:51;99866.77;;;10.60;64.91
22572;BME280;11452;53.368;14.658;2023-04-25T00:49:57;99876.11;;;10.60;65.23
22572;BME280;11452;53.368;14.658;2023-04-25T00:55:02;99886.55;;;10.70;65.42
22572;BME280;11452;53.368;14.658;2023-04-25T01:00:10;99879.55;;;10.74;65.57
22572;BME280;11452;53.368;14.658;2023-04-25T01:05:15;99878.16;;;10.69;65.42
22572;BME280;11452;53.368;14.658;2023-04-25T01:10:23;99875.48;;;10.69;65.26
22572;BME280;11452;53.368;14.658;2023-04-25T01:15:29;99874.89;;;10.58;65.57
22572;BME280;11452;53.368;14.658;2023-04-25T01:20:34;99871.84;;;10.45;65.55
22572;BME280;11452;53.368;14.658;2023-04-25T01:25:42;99866.81;;;10.40;65.95
22572;BME280;11452;53.368;14.658;2023-04-25T01:30:48;99864.70;;;10.20;66.42
22572;BME280;11452;53.368;14.658;2023-04-25T01:35:54;99860.59;;;10.14;66.91
22572;BME280;11452;53.368;14.658;2023-04-25T01:41:00;99863.75;;;10.14;67.55
22572;BME280;11452;53.368;14.658;2023-04-25T01:46:06;99863.40;;;10.05;67.84
22572;BME280;11452;53.368;14.658;2023-04-25T01:51:12;99864.08;;;10.02;68.11
22572;BME280;11452;53.368;14.658;2023-04-25T01:56:19;99866.55;;;10.05;68.23
22572;BME280;11452;53.368;14.658;2023-04-25T02:01:25;99860.80;;;10.11;68.19
22572;BME280;11452;53.368;14.658;2023-04-25T02:06:35;99857.78;;;10.03;68.87
22572;BME280;11452;53.368;14.658;2023-04-25T02:11:43;99857.69;;;10.04;68.92
22572;BME280;11452;53.368;14.658;2023-04-25T02:17:06;99848.44;;;9.90;69.04
22572;BME280;11452;53.368;14.658;2023-04-25T02:22:12;99854.45;;;9.87;69.44
22572;BME280;11452;53.368;14.658;2023-04-25T02:27:18;99858.41;;;10.01;69.56
22572;BME280;11452;53.368;14.658;2023-04-25T02:32:24;99868.09;;;10.02;69.45
22572;BME280;11452;53.368;14.658;2023-04-25T02:37:30;99864.70;;;10.00;69.73
22572;BME280;11452;53.368;14.658;2023-04-25T02:42:36;99863.95;;;10.11;69.68
22572;BME280;11452;53.368;14.658;2023-04-25T02:47:42;99852.83;;;10.04;69.66
22572;BME280;11452;53.368;14.658;2023-04-25T02:52:47;99857.10;;;10.06;69.79
22572;BME280;11452;53.368;14.658;2023-04-25T02:57:55;99851.15;;;10.16;69.51
22572;BME280;11452;53.368;14.658;2023-04-25T03:03:14;99848.20;;;10.13;69.70
22572;BME280;11452;53.368;14.658;2023-04-25T03:08:21;99851.15;;;10.16;69.68
22572;BME280;11452;53.368;14.658;2023-04-25T03:13:27;99852.48;;;10.16;69.74
22572;BME280;11452;53.368;14.658;2023-04-25T03:18:35;99851.70;;;10.21;69.71
22572;BME280;11452;53.368;14.658;2023-04-25T03:23:41;99852.07;;;10.22;69.57
22572;BME280;11452;53.368;14.658;2023-04-25T03:28:46;99844.03;;;10.09;69.64
22572;BME280;11452;53.368;14.658;2023-04-25T03:33:53;99849.57;;;10.06;70.00
22572;BME280;11452;53.368;14.658;2023-04-25T03:38:58;99858.92;;;10.06;70.24
22572;BME280;11452;53.368;14.658;2023-04-25T03:44:05;99849.47;;;10.07;70.39
22572;BME280;11452;53.368;14.658;2023-04-25T03:49:11;99861.48;;;10.07;70.49
22572;BME280;11452;53.368;14.658;2023-04-25T03:54:30;99862.98;;;9.99;70.51
22572;BME280;11452;53.368;14.658;2023-04-25T03:59:37;99860.94;;;10.02;70.93
22572;BME280;11452;53.368;14.658;2023-04-25T04:04:44;99859.36;;;10.00;71.14
22572;BME280;11452;53.368;14.658;2023-04-25T04:09:51;99861.00;;;10.08;71.02
22572;BME280;11452;53.368;14.658;2023-04-25T04:14:58;99860.21;;;10.00;71.18
22572;BME280;11452;53.368;14.658;2023-04-25T04:20:06;99864.94;;;10.02;71.13
22572;BME280;11452;53.368;14.658;2023-04-25T04:25:14;99870.28;;;10.02;71.44
22572;BME280;11452;53.368;14.658;2023-04-25T04:30:40;99878.16;;;10.11;71.57
22572;BME280;11452;53.368;14.658;2023-04-25T04:35:47;99875.66;;;10.15;71.44
22572;BME280;11452;53.368;14.658;2023-04-25T04:40:53;99887.09;;;10.17;71.36
22572;BME280;11452;53.368;14.658;2023-04-25T04:46:01;99892.16;;;10.15;71.19
22572;BME280;11452;53.368;14.658;2023-04-25T04:51:18;99899.03;;;10.12;71.39
22572;BME280;11452;53.368;14.658;2023-04-25T04:56:27;99900.95;;;10.10;71.50
22572;BME280;11452;53.368;14.658;2023-04-25T05:01:43;99911.50;;;10.18;71.78
22572;BME280;11452;53.368;14.658;2023-04-25T05:06:50;99906.44;;;10.21;71.63
22572;BME280;11452;53.368;14.658;2023-04-25T05:12:10;99904.08;;;10.36;71.79
22572;BME280;11452;53.368;14.658;2023-04-25T05:17:17;99903.50;;;10.38;71.75
22572;BME280;11452;53.368;14.658;2023-04-25T05:22:41;99903.91;;;10.32;72.09
22572;BME280;11452;53.368;14.658;2023-04-25T05:27:48;99903.33;;;10.34;72.43
22572;BME280;11452;53.368;14.658;2023-04-25T05:33:13;99908.80;;;10.25;72.57
22572;BME280;11452;53.368;14.658;2023-04-25T05:38:20;99916.68;;;10.34;73.15
22572;BME280;11452;53.368;14.658;2023-04-25T05:43:44;99918.67;;;10.37;73.26
22572;BME280;11452;53.368;14.658;2023-04-25T05:48:59;99929.25;;;10.39;74.05
22572;BME280;11452;53.368;14.658;2023-04-25T05:54:19;99927.19;;;10.43;73.97
22572;BME280;11452;53.368;14.658;2023-04-25T05:59:25;99926.09;;;10.52;74.19
22572;BME280;11452;53.368;14.658;2023-04-25T06:04:31;99926.81;;;10.41;73.98
22572;BME280;11452;53.368;14.658;2023-04-25T06:09:37;99933.63;;;10.65;74.50
22572;BME280;11452;53.368;14.658;2023-04-25T06:14:45;99938.96;;;10.78;74.08
22572;BME280;11452;53.368;14.658;2023-04-25T06:19:51;99933.00;;;10.74;73.85
22572;BME280;11452;53.368;14.658;2023-04-25T06:24:57;99934.34;;;10.74;73.47
